sensor_id;sensor_type;location;lat;lon;timestamp;temperature;humidity
25128;DHT22;13107;51.304;6.866;2022-10-16T00:03:52;12.60;99.90
25128;DHT22;13107;51.304;6.866;2022-10-16T00:07:54;12.60;99.90
25128;DHT22;13107;51.304;6.866;2022-10-16T00:11:56;12.50;99.90
25128;DHT22;13107;51.304;6.866;2022-10-16T00:15:59;12.50;99.90
25128;DHT22;13107;51.304;6.866;2022-10-16T00:20:01;12.50;99.90
25128;DHT22;13107;51.304;6.866;2022-10-16T00:24:05;12.50;99.90
25128;DHT22;13107;51.304;6.866;2022-10-16T00:28:08;12.50;99.90
25128;DHT22;13107;51.304;6.866;2022-10-16T00:32:09;12.40;99.90
25128;DHT22;13107;51.304;6.866;2022-10-16T00:36:15;12.40;99.90
25128;DHT22;13107;51.304;6.866;2022-10-16T00:40:17;12.40;99.90
25128;DHT22;13107;51.304;6.866;2022-10-16T00:44:56;12.40;99.90
25128;DHT22;13107;51.304;6.866;2022-10-16T00:49:11;12.30;99.90
25128;DHT22;13107;51.304;6.866;2022-10-16T00:53:14;12.30;99.90
25128;DHT22;13107;51.304;6.866;2022-10-16T00:57:17;12.20;99.90
25128;DHT22;13107;51.304;6.866;2022-10-16T01:01:19;12.20;99.90
25128;DHT22;13107;51.304;6.866;2022-10-16T01:05:32;12.20;99.90
25128;DHT22;13107;51.304;6.866;2022-10-16T01:13:55;12.10;99.90
25128;DHT22;13107;51.304;6.866;2022-10-16T01:22:08;12.00;99.90
25128;DHT22;13107;51.304;6.866;2022-10-16T01:26:36;12.00;99.90
25128;DHT22;13107;51.304;6.866;2022-10-16T01:30:42;12.00;99.90
25128;DHT22;13107;51.304;6.866;2022-10-16T01:34:51;11.90;99.90
25128;DHT22;13107;51.304;6.866;2022-10-16T01:38:56;11.90;99.90
25128;DHT22;13107;51.304;6.866;2022-10-16T01:43:20;11.90;99.90
25128;DHT22;13107;51.304;6.866;2022-10-16T01:47:24;11.90;99.90
25128;DHT22;13107;51.304;6.866;2022-10-16T01:51:28;11.90;99.90
25128;DHT22;13107;51.304;6.866;2022-10-16T01:55:35;11.90;99.90
25128;DHT22;13107;51.304;6.866;2022-10-16T01:59:42;11.90;99.90
25128;DHT22;13107;51.304;6.866;2022-10-16T02:03:46;12.00;99.90
25128;DHT22;13107;51.304;6.866;2022-10-16T02:07:50;12.00;99.90
25128;DHT22;13107;51.304;6.866;2022-10-16T02:11:54;12.00;99.90
25128;DHT22;13107;51.304;6.866;2022-10-16T02:15:56;12.00;99.90
25128;DHT22;13107;51.304;6.866;2022-10-16T02:19:58;12.10;99.90
25128;DHT22;13107;51.304;6.866;2022-10-16T02:28:08;12.10;99.90
25128;DHT22;13107;51.304;6.866;2022-10-16T02:32:17;12.10;99.90
25128;DHT22;13107;51.304;6.866;2022-10-16T02:36:21;12.10;99.90
25128;DHT22;13107;51.304;6.866;2022-10-16T02:40:24;12.20;99.90
25128;DHT22;13107;51.304;6.866;2022-10-16T02:44:26;12.30;99.90
25128;DHT22;13107;51.304;6.866;2022-10-16T02:48:27;12.40;99.90
25128;DHT22;13107;51.304;6.866;2022-10-16T02:52:29;12.40;99.90
25128;DHT22;13107;51.304;6.866;2022-10-16T02:56:31;12.50;99.90
25128;DHT22;13107;51.304;6.866;2022-10-16T03:00:33;12.50;99.90
25128;DHT22;13107;51.304;6.866;2022-10-16T03:04:34;12.50;99.90
25128;DHT22;13107;51.304;6.866;2022-10-16T03:08:36;12.50;99.90
25128;DHT22;13107;51.304;6.866;2022-10-16T03:12:38;12.50;99.90
25128;DHT22;13107;51.304;6.866;2022-10-16T03:16:39;12.50;99.90
25128;DHT22;13107;51.304;6.866;2022-10-16T03:20:42;12.50;99.90
25128;DHT22;13107;51.304;6.866;2022-10-16T03:24:44;12.50;99.90
25128;DHT22;13107;51.304;6.866;2022-10-16T03:28:46;12.40;99.90
25128;DHT22;13107;51.304;6.866;2022-10-16T03:32:47;12.50;99.90
25128;DHT22;13107;51.304;6.866;2022-10-16T03:36:49;12.40;99.90
25128;DHT22;13107;51.304;6.866;2022-10-16T03:40:51;12.40;99.90
25128;DHT22;13107;51.304;6.866;2022-10-16T03:44:53;12.40;99.90
25128;DHT22;13107;51.304;6.866;2022-10-16T03:48:54;12.40;99.90
25128;DHT22;13107;51.304;6.866;2022-10-16T03:52:56;12.30;99.90
25128;DHT22;13107;51.304;6.866;2022-10-16T03:56:58;12.30;99.90
25128;DHT22;13107;51.304;6.866;2022-10-16T04:01:00;12.20;99.90
25128;DHT22;13107;51.304;6.866;2022-10-16T04:05:03;12.10;99.90
25128;DHT22;13107;51.304;6.866;2022-10-16T04:09:04;12.00;99.90
25128;DHT22;13107;51.304;6.866;2022-10-16T04:13:06;11.90;99.90
25128;DHT22;13107;51.304;6.866;2022-10-16T04:17:08;11.90;99.90
25128;DHT22;13107;51.304;6.866;2022-10-16T04:21:10;11.80;99.90
25128;DHT22;13107;51.304;6.866;2022-10-16T04:25:11;11.80;99.90
25128;DHT22;13107;51.304;6.866;2022-10-16T04:29:13;11.70;99.90
25128;DHT22;13107;51.304;6.866;2022-10-16T04:33:15;11.70;99.90
25128;DHT22;13107;51.304;6.866;2022-10-16T04:37:16;11.70;99.90
25128;DHT22;13107;51.304;6.866;2022-10-16T04:41:18;11.60;99.90
25128;DHT22;13107;51.304;6.866;2022-10-16T04:45:20;11.70;99.90
25128;DHT22;13107;51.304;6.866;2022-10-16T04:49:21;11.60;99.90
25128;DHT22;13107;51.304;6.866;2022-10-16T04:53:23;11.70;99.90
25128;DHT22;13107;51.304;6.866;2022-10-16T04:57:25;11.70;99.90
25128;DHT22;13107;51.304;6.866;2022-10-16T05:01:27;11.70;99.90
25128;DHT22;13107;51.304;6.866;2022-10-16T05:05:29;11.80;99.90
25128;DHT22;13107;51.304;6.866;2022-10-16T05:09:31;11.80;99.90
25128;DHT22;13107;51.304;6.866;2022-10-16T05:13:32;11.70;99.90
25128;DHT22;13107;51.304;6.866;2022-10-16T05:17:34;11.70;99.90
25128;DHT22;13107;51.304;6.866;2022-10-16T05:21:36;11.70;99.90
25128;DHT22;13107;51.304;6.866;2022-10-16T05:25:38;11.70;99.90
25128;DHT22;13107;51.304;6.866;2022-10-16T05:29:39;11.70;99.90
25128;DHT22;13107;51.304;6.866;2022-10-16T05:33:41;11.70;99.90
25128;DHT22;13107;51.304;6.866;2022-10-16T05:37:44;11.70;99.90
25128;DHT22;13107;51.304;6.866;2022-10-16T05:41:46;11.60;99.90
25128;DHT22;13107;51.304;6.866;2022-10-16T05:45:59;11.60;99.90
25128;DHT22;13107;51.304;6.866;2022-10-16T05:50:01;11.60;99.90
25128;DHT22;13107;51.304;6.866;2022-10-16T05:54:03;11.70;99.90
25128;DHT22;13107;51.304;6.866;2022-10-16T05:58:05;11.60;99.90
25128;DHT22;13107;51.304;6.866;2022-10-16T06:02:12;11.60;99.90
25128;DHT22;13107;51.304;6.866;2022-10-16T06:06:16;11.60;99.90
25128;DHT22;13107;51.304;6.866;2022-10-16T06:10:18;11.60;99.90
25128;DHT22;13107;51.304;6.866;2022-10-16T06:14:20;11.60;99.90
25128;DHT22;13107;51.304;6.866;2022-10-16T06:18:22;11.60;99.90
25128;DHT22;13107;51.304;6.866;2022-10-16T06:22:23;11.60;99.90
25128;DHT22;13107;51.304;6.866;2022-10-16T06:26:27;11.60;99.90
25128;DHT22;13107;51.304;6.866;2022-10-16T06:30:30;11.70;99.90
25128;DHT22;13107;51.304;6.866;2022-10-16T06:34:31;11.70;99.90
25128;DHT22;13107;51.304;6.866;2022-10-16T06:38:33;11.70;99.90
25128;DHT22;13107;51.304;6.866;2022-10-16T06:42:35;11.80;99.90
25128;DHT22;13107;51.304;6.866;2022-10-16T06:46:37;11.80;99.90
25128;DHT22;13107;51.304;6.866;2022-10-16T06:50:38;11.90;99.90
25128;DHT22;13107;51.304;6.866;2022-10-16T06:54:40;12.00;99.90
25128;DHT22;13107;51.304;6.866;2022-10-16T06:58:43;12.10;99.90
25128;DHT22;13107;51.304;6.866;2022-10-16T07:02:45;12.20;99.90
25128;DHT22;13107;51.304;6.866;2022-10-16T07:06:47;12.30;99.90
25128;DHT22;13107;51.304;6.866;2022-10-16T07:11:40;12.40;99.90
25128;DHT22;13107;51.304;6.866;2022-10-16T07:15:22;12.40;99.90
25128;DHT22;13107;51.304;6.866;2022-10-16T07:19:24;12.40;99.90
25128;DHT22;13107;51.304;6.866;2022-10-16T07:23:31;12.40;99.90
25128;DHT22;13107;51.304;6.866;2022-10-16T07:27:33;12.40;99.90
25128;DHT22;13107;51.304;6.866;2022-10-16T07:31:34;12.30;99.90
25128;DHT22;13107;51.304;6.866;2022-10-16T07:35:37;12.30;99.90
25128;DHT22;13107;51.304;6.866;2022-10-16T07:39:39;12.30;99.90
25128;DHT22;13107;51.304;6.866;2022-10-16T07:43:45;12.30;99.90
25128;DHT22;13107;51.304;6.866;2022-10-16T07:47:47;12.40;99.90
25128;DHT22;13107;51.304;6.866;2022-10-16T07:51:49;12.40;99.90
25128;DHT22;13107;51.304;6.866;2022-10-16T07:55:51;12.50;99.90
25128;DHT22;13107;51.304;6.866;2022-10-16T07:59:52;12.60;99.90
25128;DHT22;13107;51.304;6.866;2022-10-16T08:03:54;12.70;99.90
25128;DHT22;13107;51.304;6.866;2022-10-16T08:07:56;12.90;99.90
25128;DHT22;13107;51.304;6.866;2022-10-16T08:11:58;13.10;99.90
25128;DHT22;13107;51.304;6.866;2022-10-16T08:16:03;13.40;99.90
25128;DHT22;13107;51.304;6.866;2022-10-16T08:20:13;13.70;99.90
25128;DHT22;13107;51.304;6.866;2022-10-16T08:24:15;13.90;99.90
25128;DHT22;13107;51.304;6.866;2022-10-16T08:28:17;13.90;99.90
25128;DHT22;13107;51.304;6.866;2022-10-16T08:32:19;14.00;99.90
25128;DHT22;13107;51.304;6.866;2022-10-16T08:36:25;14.10;99.90
25128;DHT22;13107;51.304;6.866;2022-10-16T08:40:29;14.40;99.90
25128;DHT22;13107;51.304;6.866;2022-10-16T08:48:57;14.50;99.90
25128;DHT22;13107;51.304;6.866;2022-10-16T08:53:00;14.60;99.90
25128;DHT22;13107;51.304;6.866;2022-10-16T08:57:14;14.60;99.90
25128;DHT22;13107;51.304;6.866;2022-10-16T09:01:32;14.90;99.90
25128;DHT22;13107;51.304;6.866;2022-10-16T09:10:50;15.40;99.90
25128;DHT22;13107;51.304;6.866;2022-10-16T09:19:35;15.50;99.90
25128;DHT22;13107;51.304;6.866;2022-10-16T09:23:39;15.60;99.90
25128;DHT22;13107;51.304;6.866;2022-10-16T09:27:43;15.80;99.90
25128;DHT22;13107;51.304;6.866;2022-10-16T09:31:46;15.90;99.90
25128;DHT22;13107;51.304;6.866;2022-10-16T09:35:53;16.40;99.90
25128;DHT22;13107;51.304;6.866;2022-10-16T09:39:55;16.70;99.90
25128;DHT22;13107;51.304;6.866;2022-10-16T09:44:00;16.90;99.90
25128;DHT22;13107;51.304;6.866;2022-10-16T09:48:11;17.30;99.90
25128;DHT22;13107;51.304;6.866;2022-10-16T09:52:15;17.50;99.90
25128;DHT22;13107;51.304;6.866;2022-10-16T09:56:26;17.70;99.90
25128;DHT22;13107;51.304;6.866;2022-10-16T10:00:28;17.90;99.90
25128;DHT22;13107;51.304;6.866;2022-10-16T10:04:40;18.00;99.90
25128;DHT22;13107;51.304;6.866;2022-10-16T10:09:03;17.80;99.90
25128;DHT22;13107;51.304;6.866;2022-10-16T10:13:20;17.70;99.90
25128;DHT22;13107;51.304;6.866;2022-10-16T10:17:27;17.30;99.90
25128;DHT22;13107;51.304;6.866;2022-10-16T10:21:33;17.20;99.90
25128;DHT22;13107;51.304;6.866;2022-10-16T10:30:10;17.10;99.90
25128;DHT22;13107;51.304;6.866;2022-10-16T10:34:11;16.80;99.90
25128;DHT22;13107;51.304;6.866;2022-10-16T10:42:43;16.80;99.90
25128;DHT22;13107;51.304;6.866;2022-10-16T10:46:56;16.80;99.90
25128;DHT22;13107;51.304;6.866;2022-10-16T10:51:05;16.70;99.90
25128;DHT22;13107;51.304;6.866;2022-10-16T10:55:37;16.70;99.90
25128;DHT22;13107;51.304;6.866;2022-10-16T11:12:44;17.00;99.90
25128;DHT22;13107;51.304;6.866;2022-10-16T11:21:06;17.10;99.90
25128;DHT22;13107;51.304;6.866;2022-10-16T11:25:20;17.20;99.90
25128;DHT22;13107;51.304;6.866;2022-10-16T11:29:26;17.20;99.90
25128;DHT22;13107;51.304;6.866;2022-10-16T11:33:40;17.30;99.90
25128;DHT22;13107;51.304;6.866;2022-10-16T11:37:44;17.20;99.90
25128;DHT22;13107;51.304;6.866;2022-10-16T11:41:51;17.10;99.90
25128;DHT22;13107;51.304;6.866;2022-10-16T11:45:55;17.20;99.90
25128;DHT22;13107;51.304;6.866;2022-10-16T11:54:35;17.20;99.90
25128;DHT22;13107;51.304;6.866;2022-10-16T12:02:56;17.60;99.90
25128;DHT22;13107;51.304;6.866;2022-10-16T12:07:07;17.40;99.90
25128;DHT22;13107;51.304;6.866;2022-10-16T12:15:28;17.60;99.90
25128;DHT22;13107;51.304;6.866;2022-10-16T12:19:57;17.60;99.90
25128;DHT22;13107;51.304;6.866;2022-10-16T12:24:00;17.80;99.90
25128;DHT22;13107;51.304;6.866;2022-10-16T12:28:27;17.90;99.90
25128;DHT22;13107;51.304;6.866;2022-10-16T12:32:34;18.10;99.90
25128;DHT22;13107;51.304;6.866;2022-10-16T12:36:53;18.50;99.90
25128;DHT22;13107;51.304;6.866;2022-10-16T12:41:02;18.70;99.90
25128;DHT22;13107;51.304;6.866;2022-10-16T12:45:27;18.60;99.90
25128;DHT22;13107;51.304;6.866;2022-10-16T12:49:37;18.70;99.90
25128;DHT22;13107;51.304;6.866;2022-10-16T12:53:40;18.50;99.90
25128;DHT22;13107;51.304;6.866;2022-10-16T12:58:14;18.50;99.90
25128;DHT22;13107;51.304;6.866;2022-10-16T13:11:26;18.90;99.90
25128;DHT22;13107;51.304;6.866;2022-10-16T13:15:58;18.80;99.90
25128;DHT22;13107;51.304;6.866;2022-10-16T13:28:39;19.10;99.90
25128;DHT22;13107;51.304;6.866;2022-10-16T13:32:46;19.40;99.90
25128;DHT22;13107;51.304;6.866;2022-10-16T13:36:50;19.60;99.90
25128;DHT22;13107;51.304;6.866;2022-10-16T13:41:02;19.80;99.90
25128;DHT22;13107;51.304;6.866;2022-10-16T13:45:04;19.40;99.90
25128;DHT22;13107;51.304;6.866;2022-10-16T13:49:16;19.10;99.90
25128;DHT22;13107;51.304;6.866;2022-10-16T13:53:18;19.00;99.90
25128;DHT22;13107;51.304;6.866;2022-10-16T13:57:23;19.10;99.90
25128;DHT22;13107;51.304;6.866;2022-10-16T14:01:32;19.10;99.90
25128;DHT22;13107;51.304;6.866;2022-10-16T14:05:35;19.10;99.90
25128;DHT22;13107;51.304;6.866;2022-10-16T14:09:38;19.50;99.90
25128;DHT22;13107;51.304;6.866;2022-10-16T14:13:44;19.60;99.90
25128;DHT22;13107;51.304;6.866;2022-10-16T14:17:49;19.30;99.90
25128;DHT22;13107;51.304;6.866;2022-10-16T14:21:52;19.00;99.90
25128;DHT22;13107;51.304;6.866;2022-10-16T14:25:56;18.70;99.90
25128;DHT22;13107;51.304;6.866;2022-10-16T14:30:18;18.60;99.90
25128;DHT22;13107;51.304;6.866;2022-10-16T14:38:26;18.30;99.90
25128;DHT22;13107;51.304;6.866;2022-10-16T14:42:28;18.30;99.90
25128;DHT22;13107;51.304;6.866;2022-10-16T14:46:35;18.30;99.90
25128;DHT22;13107;51.304;6.866;2022-10-16T14:50:43;18.10;99.90
25128;DHT22;13107;51.304;6.866;2022-10-16T14:54:47;17.80;99.90
25128;DHT22;13107;51.304;6.866;2022-10-16T14:58:52;17.70;99.90
25128;DHT22;13107;51.304;6.866;2022-10-16T15:02:54;17.70;99.90
25128;DHT22;13107;51.304;6.866;2022-10-16T15:06:56;17.50;99.90
25128;DHT22;13107;51.304;6.866;2022-10-16T15:10:58;17.40;99.90
25128;DHT22;13107;51.304;6.866;2022-10-16T15:15:00;17.30;99.90
25128;DHT22;13107;51.304;6.866;2022-10-16T15:19:01;17.20;99.90
25128;DHT22;13107;51.304;6.866;2022-10-16T15:23:14;17.20;99.90
25128;DHT22;13107;51.304;6.866;2022-10-16T15:27:17;17.10;99.90
25128;DHT22;13107;51.304;6.866;2022-10-16T15:31:18;16.90;99.90
25128;DHT22;13107;51.304;6.866;2022-10-16T15:35:20;16.80;99.90
25128;DHT22;13107;51.304;6.866;2022-10-16T15:39:22;16.70;99.90
25128;DHT22;13107;51.304;6.866;2022-10-16T15:43:24;16.70;99.90
25128;DHT22;13107;51.304;6.866;2022-10-16T15:47:26;16.60;99.90
25128;DHT22;13107;51.304;6.866;2022-10-16T15:51:28;16.40;99.90
25128;DHT22;13107;51.304;6.866;2022-10-16T15:55:31;16.40;99.90
25128;DHT22;13107;51.304;6.866;2022-10-16T15:59:32;16.20;99.90
25128;DHT22;13107;51.304;6.866;2022-10-16T16:03:34;16.10;99.90
25128;DHT22;13107;51.304;6.866;2022-10-16T16:07:38;16.00;99.90
25128;DHT22;13107;51.304;6.866;2022-10-16T16:11:40;15.90;99.90
25128;DHT22;13107;51.304;6.866;2022-10-16T16:15:42;15.90;99.90
25128;DHT22;13107;51.304;6.866;2022-10-16T16:19:45;15.70;99.90
25128;DHT22;13107;51.304;6.866;2022-10-16T16:23:47;15.70;99.90
25128;DHT22;13107;51.304;6.866;2022-10-16T16:27:49;15.60;99.90
25128;DHT22;13107;51.304;6.866;2022-10-16T16:31:50;15.50;99.90
25128;DHT22;13107;51.304;6.866;2022-10-16T16:35:59;15.50;99.90
25128;DHT22;13107;51.304;6.866;2022-10-16T16:40:02;15.40;99.90
25128;DHT22;13107;51.304;6.866;2022-10-16T16:44:05;15.30;99.90
25128;DHT22;13107;51.304;6.866;2022-10-16T16:48:07;15.20;99.90
25128;DHT22;13107;51.304;6.866;2022-10-16T16:52:09;15.10;99.90
25128;DHT22;13107;51.304;6.866;2022-10-16T16:56:11;15.00;99.90
25128;DHT22;13107;51.304;6.866;2022-10-16T17:00:13;15.00;99.90
25128;DHT22;13107;51.304;6.866;2022-10-16T17:04:15;14.90;99.90
25128;DHT22;13107;51.304;6.866;2022-10-16T17:08:17;14.80;99.90
25128;DHT22;13107;51.304;6.866;2022-10-16T17:12:18;14.80;99.90
25128;DHT22;13107;51.304;6.866;2022-10-16T17:16:22;14.70;99.90
25128;DHT22;13107;51.304;6.866;2022-10-16T17:20:24;14.70;99.90
25128;DHT22;13107;51.304;6.866;2022-10-16T17:24:25;14.60;99.90
25128;DHT22;13107;51.304;6.866;2022-10-16T17:28:27;14.50;99.90
25128;DHT22;13107;51.304;6.866;2022-10-16T17:32:29;14.50;99.90
25128;DHT22;13107;51.304;6.866;2022-10-16T17:36:33;14.50;99.90
25128;DHT22;13107;51.304;6.866;2022-10-16T17:40:35;14.40;99.90
25128;DHT22;13107;51.304;6.866;2022-10-16T17:44:37;14.40;99.90
25128;DHT22;13107;51.304;6.866;2022-10-16T17:48:40;14.40;99.90
25128;DHT22;13107;51.304;6.866;2022-10-16T17:52:42;14.40;99.90
25128;DHT22;13107;51.304;6.866;2022-10-16T17:56:44;14.30;99.90
25128;DHT22;13107;51.304;6.866;2022-10-16T18:00:46;14.30;99.90
25128;DHT22;13107;51.304;6.866;2022-10-16T18:04:49;14.40;99.90
25128;DHT22;13107;51.304;6.866;2022-10-16T18:08:51;14.40;99.90
25128;DHT22;13107;51.304;6.866;2022-10-16T18:12:53;14.40;99.90
25128;DHT22;13107;51.304;6.866;2022-10-16T18:16:56;14.50;99.90
25128;DHT22;13107;51.304;6.866;2022-10-16T18:20:59;14.50;99.90
25128;DHT22;13107;51.304;6.866;2022-10-16T18:25:06;14.60;99.90
25128;DHT22;13107;51.304;6.866;2022-10-16T18:29:09;14.70;99.90
25128;DHT22;13107;51.304;6.866;2022-10-16T18:33:11;14.70;99.90
25128;DHT22;13107;51.304;6.866;2022-10-16T18:37:12;14.80;99.90
25128;DHT22;13107;51.304;6.866;2022-10-16T18:41:14;14.80;99.90
25128;DHT22;13107;51.304;6.866;2022-10-16T18:45:16;14.80;99.90
25128;DHT22;13107;51.304;6.866;2022-10-16T18:49:18;14.90;99.90
25128;DHT22;13107;51.304;6.866;2022-10-16T18:53:20;15.10;99.90
25128;DHT22;13107;51.304;6.866;2022-10-16T18:57:21;15.10;99.90
25128;DHT22;13107;51.304;6.866;2022-10-16T19:01:26;15.20;99.90
25128;DHT22;13107;51.304;6.866;2022-10-16T19:05:27;15.30;99.90
25128;DHT22;13107;51.304;6.866;2022-10-16T19:09:29;15.30;99.90
25128;DHT22;13107;51.304;6.866;2022-10-16T19:13:32;15.40;99.90
25128;DHT22;13107;51.304;6.866;2022-10-16T19:17:35;15.40;99.90
25128;DHT22;13107;51.304;6.866;2022-10-16T19:21:38;15.30;99.90
25128;DHT22;13107;51.304;6.866;2022-10-16T19:25:43;15.30;99.90
25128;DHT22;13107;51.304;6.866;2022-10-16T19:29:44;15.20;99.90
25128;DHT22;13107;51.304;6.866;2022-10-16T19:33:49;15.10;99.90
25128;DHT22;13107;51.304;6.866;2022-10-16T19:37:51;15.00;99.90
25128;DHT22;13107;51.304;6.866;2022-10-16T19:41:53;14.90;99.90
25128;DHT22;13107;51.304;6.866;2022-10-16T19:45:54;14.80;99.90
25128;DHT22;13107;51.304;6.866;2022-10-16T19:49:56;14.80;99.90
25128;DHT22;13107;51.304;6.866;2022-10-16T19:54:00;14.80;99.90
25128;DHT22;13107;51.304;6.866;2022-10-16T19:58:03;14.70;99.90
25128;DHT22;13107;51.304;6.866;2022-10-16T20:02:04;14.60;99.90
25128;DHT22;13107;51.304;6.866;2022-10-16T20:06:07;14.60;99.90
25128;DHT22;13107;51.304;6.866;2022-10-16T20:10:09;14.50;99.90
25128;DHT22;13107;51.304;6.866;2022-10-16T20:14:11;14.40;99.90
25128;DHT22;13107;51.304;6.866;2022-10-16T20:18:13;14.30;99.90
25128;DHT22;13107;51.304;6.866;2022-10-16T20:22:16;14.30;99.90
25128;DHT22;13107;51.304;6.866;2022-10-16T20:26:19;14.20;99.90
25128;DHT22;13107;51.304;6.866;2022-10-16T20:30:21;14.10;99.90
25128;DHT22;13107;51.304;6.866;2022-10-16T20:34:22;14.00;99.90
25128;DHT22;13107;51.304;6.866;2022-10-16T20:38:24;13.90;99.90
25128;DHT22;13107;51.304;6.866;2022-10-16T20:42:26;13.80;99.90
25128;DHT22;13107;51.304;6.866;2022-10-16T20:46:28;13.80;99.90
25128;DHT22;13107;51.304;6.866;2022-10-16T20:50:31;13.70;99.90
25128;DHT22;13107;51.304;6.866;2022-10-16T20:54:32;13.60;99.90
25128;DHT22;13107;51.304;6.866;2022-10-16T20:58:35;13.60;99.90
25128;DHT22;13107;51.304;6.866;2022-10-16T21:02:37;13.50;99.90
25128;DHT22;13107;51.304;6.866;2022-10-16T21:06:39;13.50;99.90
25128;DHT22;13107;51.304;6.866;2022-10-16T21:10:41;13.40;99.90
25128;DHT22;13107;51.304;6.866;2022-10-16T21:14:43;13.40;99.90
25128;DHT22;13107;51.304;6.866;2022-10-16T21:19:04;13.30;99.90
25128;DHT22;13107;51.304;6.866;2022-10-16T21:23:06;13.20;99.90
25128;DHT22;13107;51.304;6.866;2022-10-16T21:27:08;13.20;99.90
25128;DHT22;13107;51.304;6.866;2022-10-16T21:31:14;13.20;99.90
25128;DHT22;13107;51.304;6.866;2022-10-16T21:35:16;13.20;99.90
25128;DHT22;13107;51.304;6.866;2022-10-16T21:39:19;13.20;99.90
25128;DHT22;13107;51.304;6.866;2022-10-16T21:43:21;13.20;99.90
25128;DHT22;13107;51.304;6.866;2022-10-16T21:47:22;13.20;99.90
25128;DHT22;13107;51.304;6.866;2022-10-16T21:51:26;13.10;99.90
25128;DHT22;13107;51.304;6.866;2022-10-16T21:55:28;13.10;99.90
25128;DHT22;13107;51.304;6.866;2022-10-16T21:59:29;13.20;99.90
25128;DHT22;13107;51.304;6.866;2022-10-16T22:03:31;13.20;99.90
25128;DHT22;13107;51.304;6.866;2022-10-16T22:07:33;13.20;99.90
25128;DHT22;13107;51.304;6.866;2022-10-16T22:11:36;13.20;99.90
25128;DHT22;13107;51.304;6.866;2022-10-16T22:15:38;13.30;99.90
25128;DHT22;13107;51.304;6.866;2022-10-16T22:19:39;13.50;99.90
25128;DHT22;13107;51.304;6.866;2022-10-16T22:23:41;13.60;99.90
25128;DHT22;13107;51.304;6.866;2022-10-16T22:27:43;13.70;99.90
25128;DHT22;13107;51.304;6.866;2022-10-16T22:31:44;13.80;99.90
25128;DHT22;13107;51.304;6.866;2022-10-16T22:35:46;13.80;99.90
25128;DHT22;13107;51.304;6.866;2022-10-16T22:39:48;13.80;99.90
25128;DHT22;13107;51.304;6.866;2022-10-16T22:43:50;13.90;99.90
25128;DHT22;13107;51.304;6.866;2022-10-16T22:47:51;13.90;99.90
25128;DHT22;13107;51.304;6.866;2022-10-16T22:51:53;13.90;99.90
25128;DHT22;13107;51.304;6.866;2022-10-16T22:55:55;13.90;99.90
25128;DHT22;13107;51.304;6.866;2022-10-16T22:59:56;13.80;99.90
25128;DHT22;13107;51.304;6.866;2022-10-16T23:03:59;13.90;99.90
25128;DHT22;13107;51.304;6.866;2022-10-16T23:08:01;13.90;99.90
25128;DHT22;13107;51.304;6.866;2022-10-16T23:12:04;13.90;99.90
25128;DHT22;13107;51.304;6.866;2022-10-16T23:16:06;13.90;99.90
25128;DHT22;13107;51.304;6.866;2022-10-16T23:20:09;13.90;99.90
25128;DHT22;13107;51.304;6.866;2022-10-16T23:24:11;13.80;99.90
25128;DHT22;13107;51.304;6.866;2022-10-16T23:28:13;13.80;99.90
25128;DHT22;13107;51.304;6.866;2022-10-16T23:32:20;13.70;99.90
25128;DHT22;13107;51.304;6.866;2022-10-16T23:36:22;13.70;99.90
25128;DHT22;13107;51.304;6.866;2022-10-16T23:40:24;13.70;99.90
25128;DHT22;13107;51.304;6.866;2022-10-16T23:44:26;13.70;99.90
25128;DHT22;13107;51.304;6.866;2022-10-16T23:48:27;13.70;99.90
25128;DHT22;13107;51.304;6.866;2022-10-16T23:52:29;13.70;99.90
25128;DHT22;13107;51.304;6.866;2022-10-16T23:56:31;13.80;99.90
